createdAt,value
2019-02-27T00:03:30.470Z,27.37
2019-02-27T00:08:36.630Z,28.17
2019-02-27T00:13:42.755Z,26.00
2019-02-27T00:18:48.774Z,27.27
2019-02-27T00:23:56.863Z,29.33
2019-02-27T00:29:02.776Z,31.97
2019-02-27T00:34:08.913Z,29.20
2019-02-27T00:39:14.996Z,26.73
2019-02-27T00:44:21.419Z,29.57
2019-02-27T00:49:29.827Z,26.97
2019-02-27T00:54:35.219Z,30.27
2019-02-27T00:59:41.376Z,36.00
2019-02-27T01:04:47.524Z,31.50
2019-02-27T01:09:53.668Z,30.63
2019-02-27T01:14:59.699Z,29.33
2019-02-27T01:20:06.212Z,30.40
2019-02-27T01:25:12.476Z,32.13
2019-02-27T01:30:23.930Z,28.63
2019-02-27T01:35:27.280Z,31.33
2019-02-27T01:40:33.371Z,29.73
2019-02-27T01:45:39.428Z,28.77
2019-02-27T01:50:45.623Z,29.70
2019-02-27T01:55:51.694Z,28.73
2019-02-27T02:00:57.738Z,30.80
2019-02-27T02:06:04.416Z,28.47
2019-02-27T02:11:10.920Z,29.43
2019-02-27T02:16:34.945Z,31.43
2019-02-27T02:22:24.869Z,28.83
2019-02-27T02:28:32.556Z,32.23
2019-02-27T02:34:25.989Z,31.67
2019-02-27T02:39:54.320Z,31.00
2019-02-27T02:45:09.030Z,30.67
2019-02-27T02:50:53.965Z,33.63
2019-02-27T02:56:38.275Z,27.70
2019-02-27T03:02:23.732Z,33.00
2019-02-27T03:08:07.919Z,33.47
2019-02-27T03:13:31.726Z,32.30
2019-02-27T03:19:11.877Z,31.43
2019-02-27T03:24:49.198Z,36.57
2019-02-27T03:30:14.255Z,31.03
2019-02-27T03:36:04.440Z,34.93
2019-02-27T03:41:46.515Z,33.10
2019-02-27T03:47:31.371Z,34.07
2019-02-27T03:53:10.889Z,31.80
2019-02-27T03:58:42.462Z,34.93
2019-02-27T04:04:02.892Z,36.53
2019-02-27T04:09:10.136Z,36.10
2019-02-27T04:14:29.980Z,33.57
2019-02-27T04:19:39.288Z,33.33
2019-02-27T04:24:44.172Z,41.63
2019-02-27T04:29:50.138Z,36.23
2019-02-27T04:34:56.229Z,36.67
2019-02-27T04:40:02.486Z,48.83
2019-02-27T04:45:09.867Z,35.63
2019-02-27T04:50:17.514Z,32.53
2019-02-27T04:55:23.595Z,33.97
2019-02-27T05:00:29.698Z,36.47
2019-02-27T05:05:35.843Z,33.70
2019-02-27T05:10:41.999Z,32.10
2019-02-27T05:15:48.125Z,34.73
2019-02-27T05:20:53.858Z,37.83
2019-02-27T05:25:59.923Z,38.70
2019-02-27T05:31:05.995Z,37.73
2019-02-27T05:36:12.077Z,37.70
2019-02-27T05:41:19.149Z,39.50
2019-02-27T05:46:25.332Z,32.80
2019-02-27T05:51:31.541Z,43.03
2019-02-27T05:56:37.612Z,36.43
2019-02-27T06:01:43.697Z,38.83
2019-02-27T06:06:49.861Z,35.40
2019-02-27T06:11:56.020Z,40.80
2019-02-27T06:17:02.103Z,39.33
2019-02-27T06:22:08.200Z,40.10
2019-02-27T06:27:14.343Z,41.27
2019-02-27T06:32:20.511Z,40.20
2019-02-27T06:37:26.611Z,40.07
2019-02-27T06:42:32.732Z,36.97
2019-02-27T06:47:38.745Z,40.57
2019-02-27T06:52:44.882Z,38.50
2019-02-27T06:57:50.890Z,38.70
2019-02-27T07:02:58.015Z,37.70
2019-02-27T07:08:05.098Z,43.50
2019-02-27T07:13:11.494Z,43.47
2019-02-27T07:18:17.641Z,36.27
2019-02-27T07:23:23.869Z,43.43
2019-02-27T07:28:30.979Z,45.20
2019-02-27T07:33:40.647Z,42.67
2019-02-27T07:38:47.280Z,42.57
2019-02-27T07:43:53.349Z,42.63
2019-02-27T07:49:01.456Z,41.73
2019-02-27T07:54:07.254Z,40.23
2019-02-27T07:59:13.358Z,37.57
2019-02-27T08:04:22.108Z,37.37
2019-02-27T08:09:29.950Z,37.03
2019-02-27T08:14:37.201Z,36.77
2019-02-27T08:19:45.014Z,44.90
2019-02-27T08:24:50.454Z,46.87
2019-02-27T08:29:59.718Z,53.93
2019-02-27T08:35:05.557Z,44.10
2019-02-27T08:40:11.658Z,35.70
2019-02-27T08:45:20.035Z,45.00
2019-02-27T08:50:25.637Z,39.17
2019-02-27T08:55:31.716Z,36.97
2019-02-27T09:00:38.635Z,35.73
2019-02-27T09:05:44.699Z,35.03
2019-02-27T09:10:50.769Z,35.33
2019-02-27T09:15:57.871Z,34.43
2019-02-27T09:21:03.866Z,27.47
2019-02-27T09:26:10.024Z,30.97
2019-02-27T09:31:16.164Z,24.67
2019-02-27T09:36:22.263Z,27.90
2019-02-27T09:41:28.423Z,25.70
2019-02-27T09:46:34.530Z,29.90
2019-02-27T09:51:40.596Z,23.50
2019-02-27T09:56:46.667Z,24.87
2019-02-27T10:01:52.827Z,59.35
2019-02-27T10:06:59.006Z,23.87
2019-02-27T10:12:05.136Z,23.20
2019-02-27T10:17:11.388Z,22.52
2019-02-27T10:22:20.152Z,23.60
2019-02-27T10:27:25.498Z,25.20
2019-02-27T10:32:36.454Z,21.15
2019-02-27T10:37:40.878Z,22.05
2019-02-27T10:42:47.092Z,23.12
2019-02-27T10:47:53.191Z,23.83
2019-02-27T10:52:59.338Z,22.15
2019-02-27T10:58:07.539Z,21.90
2019-02-27T11:03:13.237Z,18.82
2019-02-27T11:08:19.305Z,16.55
2019-02-27T11:13:25.455Z,18.10
2019-02-27T11:18:31.645Z,20.92
2019-02-27T11:23:40.944Z,14.73
2019-02-27T11:28:47.722Z,15.43
2019-02-27T11:33:53.453Z,17.20
2019-02-27T11:38:59.953Z,16.60
2019-02-27T11:44:06.101Z,15.47
2019-02-27T11:49:12.133Z,16.83
2019-02-27T11:54:18.145Z,13.53
2019-02-27T11:59:24.232Z,18.20
2019-02-27T12:04:30.385Z,14.10
2019-02-27T12:09:36.599Z,12.73
2019-02-27T12:14:42.718Z,10.13
2019-02-27T12:19:48.727Z,6.37
2019-02-27T12:24:54.799Z,7.57
2019-02-27T12:30:02.854Z,9.63
2019-02-27T12:35:11.728Z,7.90
2019-02-27T12:40:24.051Z,7.47
2019-02-27T12:45:29.577Z,8.77
2019-02-27T12:50:35.201Z,9.67
2019-02-27T12:55:41.223Z,9.67
2019-02-27T13:00:47.274Z,9.40
2019-02-27T13:05:53.317Z,7.47
2019-02-27T13:10:59.543Z,11.57
2019-02-27T13:16:05.611Z,9.70
2019-02-27T13:21:11.700Z,12.10
2019-02-27T13:26:17.763Z,18.87
2019-02-27T13:31:23.806Z,14.17
2019-02-27T13:36:31.600Z,14.70
2019-02-27T13:41:37.617Z,16.10
2019-02-27T13:46:43.686Z,20.80
2019-02-27T13:51:49.836Z,14.40
2019-02-27T13:56:56.025Z,15.10
2019-02-27T14:02:04.000Z,13.00
2019-02-27T14:07:09.831Z,15.90
2019-02-27T14:12:15.991Z,13.83
2019-02-27T14:17:22.061Z,12.27
2019-02-27T14:22:28.117Z,14.00
2019-02-27T14:27:34.167Z,14.10
2019-02-27T14:32:40.290Z,9.90
2019-02-27T14:37:49.575Z,13.87
2019-02-27T14:42:55.077Z,15.73
2019-02-27T14:48:01.383Z,15.80
2019-02-27T14:53:08.507Z,13.87
2019-02-27T14:58:14.461Z,11.93
2019-02-27T15:03:20.566Z,13.10
2019-02-27T15:08:27.792Z,20.63
2019-02-27T15:13:34.001Z,18.73
2019-02-27T15:18:40.560Z,20.50
2019-02-27T15:23:46.807Z,16.53
2019-02-27T15:28:53.055Z,20.90
2019-02-27T15:33:59.412Z,14.03
2019-02-27T15:39:07.941Z,16.13
2019-02-27T15:44:15.782Z,18.33
2019-02-27T15:49:21.858Z,13.43
2019-02-27T15:54:28.015Z,23.83
2019-02-27T15:59:34.380Z,18.77
2019-02-27T16:04:40.411Z,15.03
2019-02-27T16:09:46.486Z,15.50
2019-02-27T16:14:52.622Z,23.37
2019-02-27T16:19:58.782Z,14.80
2019-02-27T16:25:05.195Z,18.87
2019-02-27T16:30:15.278Z,19.10
2019-02-27T16:35:21.436Z,13.10
2019-02-27T16:40:27.722Z,12.50
2019-02-27T16:45:36.644Z,21.77
2019-02-27T16:50:41.830Z,25.20
2019-02-27T16:55:48.231Z,44.10
2019-02-27T17:00:55.563Z,24.77
2019-02-27T17:06:01.842Z,26.57
2019-02-27T17:11:07.984Z,24.10
2019-02-27T17:16:14.192Z,19.00
2019-02-27T17:21:22.680Z,19.97
2019-02-27T17:26:28.113Z,22.63
2019-02-27T17:31:35.530Z,16.27
2019-02-27T17:36:41.715Z,28.63
2019-02-27T17:41:48.778Z,26.77
2019-02-27T17:46:55.581Z,19.33
2019-02-27T17:52:21.280Z,21.03
2019-02-27T17:57:31.101Z,13.80
2019-02-27T18:02:37.428Z,14.57
2019-02-27T18:07:43.578Z,20.57
2019-02-27T18:12:51.574Z,16.17
2019-02-27T18:17:58.759Z,15.33
2019-02-27T18:23:04.971Z,20.20
2019-02-27T18:28:11.336Z,13.67
2019-02-27T18:33:17.515Z,11.67
2019-02-27T18:38:27.533Z,25.03
2019-02-27T18:43:31.860Z,16.50
2019-02-27T18:48:43.561Z,17.87
2019-02-27T18:53:48.366Z,13.23
2019-02-27T18:58:55.592Z,16.13
2019-02-27T19:04:02.541Z,23.30
2019-02-27T19:09:10.427Z,16.87
2019-02-27T19:14:18.221Z,13.70
2019-02-27T19:19:24.580Z,13.80
2019-02-27T19:24:32.459Z,13.90
2019-02-27T19:29:38.868Z,10.77
2019-02-27T19:34:47.947Z,14.83
2019-02-27T19:39:53.430Z,16.20
2019-02-27T19:45:04.389Z,11.97
2019-02-27T19:50:11.205Z,13.20
2019-02-27T19:55:16.349Z,14.20
2019-02-27T20:00:24.146Z,15.10
2019-02-27T20:05:30.441Z,21.63
2019-02-27T20:10:36.692Z,24.20
2019-02-27T20:15:45.739Z,44.00
2019-02-27T20:20:50.601Z,25.83
2019-02-27T20:25:56.697Z,20.03
2019-02-27T20:31:02.656Z,20.60
2019-02-27T20:36:08.703Z,21.10
2019-02-27T20:41:15.161Z,21.13
2019-02-27T20:46:21.257Z,21.67
2019-02-27T20:51:27.313Z,20.13
2019-02-27T20:56:35.981Z,22.37
2019-02-27T21:01:46.698Z,30.67
2019-02-27T21:06:49.020Z,23.43
2019-02-27T21:11:55.197Z,25.13
2019-02-27T21:17:01.387Z,24.67
2019-02-27T21:22:07.494Z,17.67
2019-02-27T21:27:13.625Z,19.73
2019-02-27T21:32:19.820Z,19.20
2019-02-27T21:37:25.875Z,18.43
2019-02-27T21:42:32.791Z,22.43
2019-02-27T21:47:38.844Z,22.07
2019-02-27T21:52:44.982Z,14.77
2019-02-27T21:57:51.181Z,14.27
2019-02-27T22:02:57.391Z,13.00
2019-02-27T22:08:05.440Z,14.30
2019-02-27T22:13:11.640Z,11.53
2019-02-27T22:18:17.644Z,10.70
2019-02-27T22:23:23.827Z,11.63
2019-02-27T22:28:29.934Z,11.90
2019-02-27T22:33:36.089Z,13.83
2019-02-27T22:38:43.111Z,14.73
2019-02-27T22:43:49.250Z,11.77
2019-02-27T22:48:55.431Z,12.33
2019-02-27T22:54:02.259Z,12.80
2019-02-27T22:59:08.952Z,13.93
2019-02-27T23:04:15.239Z,12.50
2019-02-27T23:09:25.573Z,15.83
2019-02-27T23:14:30.228Z,15.17
2019-02-27T23:19:36.310Z,13.43
2019-02-27T23:24:43.914Z,13.60
2019-02-27T23:29:50.188Z,12.50
2019-02-27T23:34:56.360Z,10.93
2019-02-27T23:40:02.585Z,13.13
2019-02-27T23:45:10.915Z,15.17
2019-02-27T23:50:17.196Z,11.07
2019-02-27T23:55:23.417Z,11.87
